sensor_id;sensor_type;location;lat;lon;timestamp;P1;durP1;ratioP1;P2;durP2;ratioP2
10430;SDS011;5262;59.958;17.726;2022-09-13T00:00:53;5.00;;;3.20;;
10430;SDS011;5262;59.958;17.726;2022-09-13T00:03:19;5.57;;;3.47;;
10430;SDS011;5262;59.958;17.726;2022-09-13T00:05:45;4.30;;;3.80;;
10430;SDS011;5262;59.958;17.726;2022-09-13T00:08:11;4.50;;;3.80;;
10430;SDS011;5262;59.958;17.726;2022-09-13T00:10:38;4.17;;;3.47;;
10430;SDS011;5262;59.958;17.726;2022-09-13T00:13:05;4.83;;;3.43;;
10430;SDS011;5262;59.958;17.726;2022-09-13T00:15:32;6.83;;;3.53;;
10430;SDS011;5262;59.958;17.726;2022-09-13T00:17:58;4.83;;;3.97;;
10430;SDS011;5262;59.958;17.726;2022-09-13T00:20:24;4.10;;;3.70;;
10430;SDS011;5262;59.958;17.726;2022-09-13T00:22:50;5.20;;;3.53;;
10430;SDS011;5262;59.958;17.726;2022-09-13T00:25:16;6.10;;;3.60;;
10430;SDS011;5262;59.958;17.726;2022-09-13T00:27:42;6.20;;;3.80;;
10430;SDS011;5262;59.958;17.726;2022-09-13T00:30:09;7.47;;;3.73;;
10430;SDS011;5262;59.958;17.726;2022-09-13T00:32:36;4.37;;;3.63;;
10430;SDS011;5262;59.958;17.726;2022-09-13T00:35:03;6.10;;;4.00;;
10430;SDS011;5262;59.958;17.726;2022-09-13T00:37:31;4.20;;;3.17;;
10430;SDS011;5262;59.958;17.726;2022-09-13T00:39:58;4.33;;;3.70;;
10430;SDS011;5262;59.958;17.726;2022-09-13T00:42:25;4.93;;;3.67;;
10430;SDS011;5262;59.958;17.726;2022-09-13T00:44:58;4.70;;;3.50;;
10430;SDS011;5262;59.958;17.726;2022-09-13T00:53:06;5.87;;;3.40;;
10430;SDS011;5262;59.958;17.726;2022-09-13T00:55:37;5.83;;;3.30;;
10430;SDS011;5262;59.958;17.726;2022-09-13T00:58:09;4.60;;;3.70;;
10430;SDS011;5262;59.958;17.726;2022-09-13T01:00:47;4.73;;;3.23;;
10430;SDS011;5262;59.958;17.726;2022-09-13T01:03:14;4.20;;;3.80;;
10430;SDS011;5262;59.958;17.726;2022-09-13T01:05:48;7.43;;;3.50;;
10430;SDS011;5262;59.958;17.726;2022-09-13T01:08:20;7.30;;;3.43;;
10430;SDS011;5262;59.958;17.726;2022-09-13T01:10:47;7.00;;;3.23;;
10430;SDS011;5262;59.958;17.726;2022-09-13T01:13:22;4.07;;;3.10;;
10430;SDS011;5262;59.958;17.726;2022-09-13T01:15:49;4.53;;;3.33;;
10430;SDS011;5262;59.958;17.726;2022-09-13T01:18:16;6.27;;;3.60;;
10430;SDS011;5262;59.958;17.726;2022-09-13T01:20:55;5.17;;;3.67;;
10430;SDS011;5262;59.958;17.726;2022-09-13T01:29:22;5.93;;;3.50;;
10430;SDS011;5262;59.958;17.726;2022-09-13T01:35:13;5.83;;;3.20;;
10430;SDS011;5262;59.958;17.726;2022-09-13T01:37:49;4.97;;;3.30;;
10430;SDS011;5262;59.958;17.726;2022-09-13T01:40:48;5.67;;;3.10;;
10430;SDS011;5262;59.958;17.726;2022-09-13T01:49:45;7.30;;;3.07;;
10430;SDS011;5262;59.958;17.726;2022-09-13T02:00:40;3.83;;;3.10;;
10430;SDS011;5262;59.958;17.726;2022-09-13T02:03:13;3.63;;;3.30;;
10430;SDS011;5262;59.958;17.726;2022-09-13T02:08:39;4.47;;;3.50;;
10430;SDS011;5262;59.958;17.726;2022-09-13T02:11:15;3.17;;;2.97;;
10430;SDS011;5262;59.958;17.726;2022-09-13T02:13:50;4.83;;;3.13;;
10430;SDS011;5262;59.958;17.726;2022-09-13T02:16:30;3.47;;;2.80;;
10430;SDS011;5262;59.958;17.726;2022-09-13T02:19:14;5.63;;;3.43;;
10430;SDS011;5262;59.958;17.726;2022-09-13T02:21:45;3.53;;;2.77;;
10430;SDS011;5262;59.958;17.726;2022-09-13T02:24:15;3.53;;;3.03;;
10430;SDS011;5262;59.958;17.726;2022-09-13T02:26:45;3.73;;;3.30;;
10430;SDS011;5262;59.958;17.726;2022-09-13T02:29:15;4.37;;;2.60;;
10430;SDS011;5262;59.958;17.726;2022-09-13T02:31:54;2.83;;;2.37;;
10430;SDS011;5262;59.958;17.726;2022-09-13T02:34:31;6.27;;;2.80;;
10430;SDS011;5262;59.958;17.726;2022-09-13T02:37:01;5.47;;;3.00;;
10430;SDS011;5262;59.958;17.726;2022-09-13T02:39:28;5.80;;;2.60;;
10430;SDS011;5262;59.958;17.726;2022-09-13T02:44:49;6.13;;;2.83;;
10430;SDS011;5262;59.958;17.726;2022-09-13T02:52:49;6.00;;;2.90;;
10430;SDS011;5262;59.958;17.726;2022-09-13T02:55:35;4.37;;;2.60;;
10430;SDS011;5262;59.958;17.726;2022-09-13T02:58:19;4.70;;;2.73;;
10430;SDS011;5262;59.958;17.726;2022-09-13T03:00:52;4.17;;;3.00;;
10430;SDS011;5262;59.958;17.726;2022-09-13T03:03:18;4.37;;;2.50;;
10430;SDS011;5262;59.958;17.726;2022-09-13T03:05:45;5.50;;;2.90;;
10430;SDS011;5262;59.958;17.726;2022-09-13T03:08:11;6.47;;;2.83;;
10430;SDS011;5262;59.958;17.726;2022-09-13T03:10:43;3.93;;;2.60;;
10430;SDS011;5262;59.958;17.726;2022-09-13T03:18:54;3.13;;;2.77;;
10430;SDS011;5262;59.958;17.726;2022-09-13T03:24:19;3.90;;;2.53;;
10430;SDS011;5262;59.958;17.726;2022-09-13T03:27:05;2.50;;;2.30;;
10430;SDS011;5262;59.958;17.726;2022-09-13T03:34:52;2.47;;;2.27;;
10430;SDS011;5262;59.958;17.726;2022-09-13T03:37:31;4.97;;;2.67;;
10430;SDS011;5262;59.958;17.726;2022-09-13T03:42:50;4.93;;;2.27;;
10430;SDS011;5262;59.958;17.726;2022-09-13T03:45:46;3.70;;;2.53;;
10430;SDS011;5262;59.958;17.726;2022-09-13T03:48:15;7.23;;;2.60;;
10430;SDS011;5262;59.958;17.726;2022-09-13T03:50:42;4.53;;;2.10;;
10430;SDS011;5262;59.958;17.726;2022-09-13T03:53:11;6.70;;;2.40;;
10430;SDS011;5262;59.958;17.726;2022-09-13T03:55:40;3.20;;;2.13;;
10430;SDS011;5262;59.958;17.726;2022-09-13T03:58:13;6.33;;;2.53;;
10430;SDS011;5262;59.958;17.726;2022-09-13T04:00:41;4.63;;;2.30;;
10430;SDS011;5262;59.958;17.726;2022-09-13T04:03:09;4.50;;;2.60;;
10430;SDS011;5262;59.958;17.726;2022-09-13T04:05:35;3.97;;;2.30;;
10430;SDS011;5262;59.958;17.726;2022-09-13T04:08:02;4.83;;;2.43;;
10430;SDS011;5262;59.958;17.726;2022-09-13T04:10:29;4.00;;;2.50;;
10430;SDS011;5262;59.958;17.726;2022-09-13T04:12:59;3.87;;;2.30;;
10430;SDS011;5262;59.958;17.726;2022-09-13T04:15:26;4.50;;;2.50;;
10430;SDS011;5262;59.958;17.726;2022-09-13T04:17:52;2.93;;;2.10;;
10430;SDS011;5262;59.958;17.726;2022-09-13T04:20:18;3.70;;;2.30;;
10430;SDS011;5262;59.958;17.726;2022-09-13T04:22:49;3.73;;;2.20;;
10430;SDS011;5262;59.958;17.726;2022-09-13T04:25:16;3.03;;;2.43;;
10430;SDS011;5262;59.958;17.726;2022-09-13T04:27:42;6.40;;;2.40;;
10430;SDS011;5262;59.958;17.726;2022-09-13T04:30:07;6.43;;;2.30;;
10430;SDS011;5262;59.958;17.726;2022-09-13T04:32:34;5.93;;;2.50;;
10430;SDS011;5262;59.958;17.726;2022-09-13T04:34:59;4.00;;;2.30;;
10430;SDS011;5262;59.958;17.726;2022-09-13T04:37:25;3.50;;;2.30;;
10430;SDS011;5262;59.958;17.726;2022-09-13T04:39:51;3.63;;;2.33;;
10430;SDS011;5262;59.958;17.726;2022-09-13T04:42:17;4.87;;;2.23;;
10430;SDS011;5262;59.958;17.726;2022-09-13T04:44:43;4.07;;;2.20;;
10430;SDS011;5262;59.958;17.726;2022-09-13T04:47:09;2.43;;;1.90;;
10430;SDS011;5262;59.958;17.726;2022-09-13T04:49:35;5.93;;;2.17;;
10430;SDS011;5262;59.958;17.726;2022-09-13T04:52:00;3.53;;;2.43;;
10430;SDS011;5262;59.958;17.726;2022-09-13T04:54:26;4.73;;;2.43;;
10430;SDS011;5262;59.958;17.726;2022-09-13T04:56:52;5.17;;;2.00;;
10430;SDS011;5262;59.958;17.726;2022-09-13T04:59:18;3.10;;;2.20;;
10430;SDS011;5262;59.958;17.726;2022-09-13T05:01:44;4.33;;;2.33;;
10430;SDS011;5262;59.958;17.726;2022-09-13T05:04:10;2.60;;;2.20;;
10430;SDS011;5262;59.958;17.726;2022-09-13T05:06:36;4.23;;;2.00;;
10430;SDS011;5262;59.958;17.726;2022-09-13T05:09:02;4.10;;;2.23;;
10430;SDS011;5262;59.958;17.726;2022-09-13T05:11:28;2.20;;;2.00;;
10430;SDS011;5262;59.958;17.726;2022-09-13T05:13:55;3.30;;;2.00;;
10430;SDS011;5262;59.958;17.726;2022-09-13T05:16:26;3.97;;;2.03;;
10430;SDS011;5262;59.958;17.726;2022-09-13T05:18:54;2.37;;;1.83;;
10430;SDS011;5262;59.958;17.726;2022-09-13T05:21:20;4.97;;;2.23;;
10430;SDS011;5262;59.958;17.726;2022-09-13T05:23:49;3.93;;;2.07;;
10430;SDS011;5262;59.958;17.726;2022-09-13T05:26:16;2.77;;;2.00;;
10430;SDS011;5262;59.958;17.726;2022-09-13T05:28:42;2.40;;;2.00;;
10430;SDS011;5262;59.958;17.726;2022-09-13T05:31:15;3.57;;;2.30;;
10430;SDS011;5262;59.958;17.726;2022-09-13T05:34:02;3.50;;;2.23;;
10430;SDS011;5262;59.958;17.726;2022-09-13T05:36:31;3.53;;;2.20;;
10430;SDS011;5262;59.958;17.726;2022-09-13T05:38:57;4.80;;;2.40;;
10430;SDS011;5262;59.958;17.726;2022-09-13T05:41:23;2.57;;;2.10;;
10430;SDS011;5262;59.958;17.726;2022-09-13T05:43:48;3.63;;;2.10;;
10430;SDS011;5262;59.958;17.726;2022-09-13T05:46:15;2.23;;;1.97;;
10430;SDS011;5262;59.958;17.726;2022-09-13T05:48:44;2.53;;;2.00;;
10430;SDS011;5262;59.958;17.726;2022-09-13T05:51:14;2.20;;;2.00;;
10430;SDS011;5262;59.958;17.726;2022-09-13T05:53:42;3.93;;;2.20;;
10430;SDS011;5262;59.958;17.726;2022-09-13T05:56:10;4.47;;;2.60;;
10430;SDS011;5262;59.958;17.726;2022-09-13T05:58:37;3.23;;;2.17;;
10430;SDS011;5262;59.958;17.726;2022-09-13T06:01:08;3.40;;;2.10;;
10430;SDS011;5262;59.958;17.726;2022-09-13T06:03:35;2.63;;;2.23;;
10430;SDS011;5262;59.958;17.726;2022-09-13T06:06:01;4.13;;;2.07;;
10430;SDS011;5262;59.958;17.726;2022-09-13T06:08:28;4.70;;;2.57;;
10430;SDS011;5262;59.958;17.726;2022-09-13T06:10:56;2.97;;;1.93;;
10430;SDS011;5262;59.958;17.726;2022-09-13T06:13:27;2.20;;;1.90;;
10430;SDS011;5262;59.958;17.726;2022-09-13T06:15:54;4.07;;;2.03;;
10430;SDS011;5262;59.958;17.726;2022-09-13T06:18:21;2.60;;;2.20;;
10430;SDS011;5262;59.958;17.726;2022-09-13T06:20:49;4.70;;;2.27;;
10430;SDS011;5262;59.958;17.726;2022-09-13T06:23:15;3.73;;;1.90;;
10430;SDS011;5262;59.958;17.726;2022-09-13T06:25:41;3.43;;;1.80;;
10430;SDS011;5262;59.958;17.726;2022-09-13T06:28:07;3.50;;;2.00;;
10430;SDS011;5262;59.958;17.726;2022-09-13T06:30:34;6.43;;;2.00;;
10430;SDS011;5262;59.958;17.726;2022-09-13T06:33:00;2.53;;;1.90;;
10430;SDS011;5262;59.958;17.726;2022-09-13T06:35:25;4.37;;;2.03;;
10430;SDS011;5262;59.958;17.726;2022-09-13T06:37:54;3.70;;;2.00;;
10430;SDS011;5262;59.958;17.726;2022-09-13T06:40:24;4.53;;;2.07;;
10430;SDS011;5262;59.958;17.726;2022-09-13T06:42:50;3.17;;;2.30;;
10430;SDS011;5262;59.958;17.726;2022-09-13T06:45:16;2.30;;;2.03;;
10430;SDS011;5262;59.958;17.726;2022-09-13T06:47:42;2.87;;;1.90;;
10430;SDS011;5262;59.958;17.726;2022-09-13T06:50:08;3.70;;;2.03;;
10430;SDS011;5262;59.958;17.726;2022-09-13T06:52:34;3.67;;;2.53;;
10430;SDS011;5262;59.958;17.726;2022-09-13T06:54:59;7.87;;;2.10;;
10430;SDS011;5262;59.958;17.726;2022-09-13T06:57:25;4.73;;;1.90;;
10430;SDS011;5262;59.958;17.726;2022-09-13T06:59:54;6.13;;;2.10;;
10430;SDS011;5262;59.958;17.726;2022-09-13T07:02:20;3.83;;;1.87;;
10430;SDS011;5262;59.958;17.726;2022-09-13T07:04:45;3.80;;;1.70;;
10430;SDS011;5262;59.958;17.726;2022-09-13T07:07:11;4.33;;;2.10;;
10430;SDS011;5262;59.958;17.726;2022-09-13T07:09:37;4.57;;;2.00;;
10430;SDS011;5262;59.958;17.726;2022-09-13T07:12:04;5.63;;;2.10;;
10430;SDS011;5262;59.958;17.726;2022-09-13T07:14:30;4.57;;;2.00;;
10430;SDS011;5262;59.958;17.726;2022-09-13T07:16:56;4.07;;;2.00;;
10430;SDS011;5262;59.958;17.726;2022-09-13T07:19:23;6.13;;;2.23;;
10430;SDS011;5262;59.958;17.726;2022-09-13T07:21:50;2.63;;;2.07;;
10430;SDS011;5262;59.958;17.726;2022-09-13T07:24:17;3.60;;;2.10;;
10430;SDS011;5262;59.958;17.726;2022-09-13T07:26:44;3.33;;;2.40;;
10430;SDS011;5262;59.958;17.726;2022-09-13T07:29:12;4.67;;;2.67;;
10430;SDS011;5262;59.958;17.726;2022-09-13T07:31:42;5.90;;;2.43;;
10430;SDS011;5262;59.958;17.726;2022-09-13T07:34:16;4.50;;;2.63;;
10430;SDS011;5262;59.958;17.726;2022-09-13T07:36:43;6.37;;;2.60;;
10430;SDS011;5262;59.958;17.726;2022-09-13T07:39:10;2.80;;;2.00;;
10430;SDS011;5262;59.958;17.726;2022-09-13T07:41:37;6.63;;;2.50;;
10430;SDS011;5262;59.958;17.726;2022-09-13T07:44:03;4.03;;;2.63;;
10430;SDS011;5262;59.958;17.726;2022-09-13T07:46:31;4.60;;;2.83;;
10430;SDS011;5262;59.958;17.726;2022-09-13T07:48:58;5.97;;;2.87;;
10430;SDS011;5262;59.958;17.726;2022-09-13T07:51:26;3.60;;;2.50;;
10430;SDS011;5262;59.958;17.726;2022-09-13T07:53:57;2.73;;;2.53;;
10430;SDS011;5262;59.958;17.726;2022-09-13T07:56:25;4.00;;;3.10;;
10430;SDS011;5262;59.958;17.726;2022-09-13T07:58:52;3.23;;;2.53;;
10430;SDS011;5262;59.958;17.726;2022-09-13T08:01:43;5.77;;;2.67;;
10430;SDS011;5262;59.958;17.726;2022-09-13T08:04:09;5.90;;;2.97;;
10430;SDS011;5262;59.958;17.726;2022-09-13T08:06:37;6.23;;;2.73;;
10430;SDS011;5262;59.958;17.726;2022-09-13T08:09:04;6.70;;;3.10;;
10430;SDS011;5262;59.958;17.726;2022-09-13T08:11:32;3.97;;;2.60;;
10430;SDS011;5262;59.958;17.726;2022-09-13T08:14:19;3.57;;;2.87;;
10430;SDS011;5262;59.958;17.726;2022-09-13T08:16:46;3.77;;;2.97;;
10430;SDS011;5262;59.958;17.726;2022-09-13T08:19:12;6.20;;;4.07;;
10430;SDS011;5262;59.958;17.726;2022-09-13T08:21:40;7.17;;;5.47;;
10430;SDS011;5262;59.958;17.726;2022-09-13T08:24:10;5.07;;;3.80;;
10430;SDS011;5262;59.958;17.726;2022-09-13T08:26:39;5.83;;;3.53;;
10430;SDS011;5262;59.958;17.726;2022-09-13T08:29:05;6.40;;;3.60;;
10430;SDS011;5262;59.958;17.726;2022-09-13T08:31:31;4.57;;;3.13;;
10430;SDS011;5262;59.958;17.726;2022-09-13T08:33:58;5.50;;;3.43;;
10430;SDS011;5262;59.958;17.726;2022-09-13T08:36:24;3.67;;;2.67;;
10430;SDS011;5262;59.958;17.726;2022-09-13T08:38:52;6.47;;;3.30;;
10430;SDS011;5262;59.958;17.726;2022-09-13T08:44:10;4.77;;;3.33;;
10430;SDS011;5262;59.958;17.726;2022-09-13T08:46:49;4.20;;;2.77;;
10430;SDS011;5262;59.958;17.726;2022-09-13T08:49:21;4.17;;;2.33;;
10430;SDS011;5262;59.958;17.726;2022-09-13T08:51:55;2.60;;;2.10;;
10430;SDS011;5262;59.958;17.726;2022-09-13T08:54:25;2.93;;;2.10;;
10430;SDS011;5262;59.958;17.726;2022-09-13T09:07:41;2.93;;;1.97;;
10430;SDS011;5262;59.958;17.726;2022-09-13T09:19:06;3.63;;;2.93;;
10430;SDS011;5262;59.958;17.726;2022-09-13T09:21:42;4.50;;;2.57;;
10430;SDS011;5262;59.958;17.726;2022-09-13T09:24:14;5.57;;;2.60;;
10430;SDS011;5262;59.958;17.726;2022-09-13T09:26:52;2.70;;;2.20;;
10430;SDS011;5262;59.958;17.726;2022-09-13T09:29:26;3.90;;;2.37;;
10430;SDS011;5262;59.958;17.726;2022-09-13T09:31:59;3.17;;;2.10;;
10430;SDS011;5262;59.958;17.726;2022-09-13T09:37:33;4.07;;;2.90;;
10430;SDS011;5262;59.958;17.726;2022-09-13T09:40:02;5.23;;;2.20;;
10430;SDS011;5262;59.958;17.726;2022-09-13T09:42:38;4.07;;;2.73;;
10430;SDS011;5262;59.958;17.726;2022-09-13T09:47:44;6.20;;;3.20;;
10430;SDS011;5262;59.958;17.726;2022-09-13T09:50:15;2.97;;;2.20;;
10430;SDS011;5262;59.958;17.726;2022-09-13T09:55:27;2.67;;;1.90;;
10430;SDS011;5262;59.958;17.726;2022-09-13T10:00:24;2.10;;;1.90;;
10430;SDS011;5262;59.958;17.726;2022-09-13T10:02:55;3.20;;;1.77;;
10430;SDS011;5262;59.958;17.726;2022-09-13T10:05:23;3.83;;;2.10;;
10430;SDS011;5262;59.958;17.726;2022-09-13T10:08:04;2.27;;;1.80;;
10430;SDS011;5262;59.958;17.726;2022-09-13T10:10:36;4.03;;;2.07;;
10430;SDS011;5262;59.958;17.726;2022-09-13T10:13:19;3.77;;;2.70;;
10430;SDS011;5262;59.958;17.726;2022-09-13T10:15:53;2.73;;;2.07;;
10430;SDS011;5262;59.958;17.726;2022-09-13T10:18:24;3.17;;;1.73;;
10430;SDS011;5262;59.958;17.726;2022-09-13T10:20:59;2.43;;;1.80;;
10430;SDS011;5262;59.958;17.726;2022-09-13T10:23:45;4.87;;;1.73;;
10430;SDS011;5262;59.958;17.726;2022-09-13T10:26:18;2.67;;;1.63;;
10430;SDS011;5262;59.958;17.726;2022-09-13T10:28:58;3.67;;;1.80;;
10430;SDS011;5262;59.958;17.726;2022-09-13T10:31:28;2.80;;;1.50;;
10430;SDS011;5262;59.958;17.726;2022-09-13T10:33:59;5.10;;;1.87;;
10430;SDS011;5262;59.958;17.726;2022-09-13T10:36:35;3.73;;;1.93;;
10430;SDS011;5262;59.958;17.726;2022-09-13T10:39:12;2.67;;;1.90;;
10430;SDS011;5262;59.958;17.726;2022-09-13T10:41:42;2.60;;;1.60;;
10430;SDS011;5262;59.958;17.726;2022-09-13T10:47:23;3.50;;;1.40;;
10430;SDS011;5262;59.958;17.726;2022-09-13T10:49:58;1.60;;;1.50;;
10430;SDS011;5262;59.958;17.726;2022-09-13T10:52:47;2.23;;;1.20;;
10430;SDS011;5262;59.958;17.726;2022-09-13T10:57:43;2.90;;;1.43;;
10430;SDS011;5262;59.958;17.726;2022-09-13T11:00:24;3.07;;;1.60;;
10430;SDS011;5262;59.958;17.726;2022-09-13T11:03:12;1.83;;;1.40;;
10430;SDS011;5262;59.958;17.726;2022-09-13T11:30:22;2.83;;;1.80;;
10430;SDS011;5262;59.958;17.726;2022-09-13T11:57:03;2.57;;;1.87;;
10430;SDS011;5262;59.958;17.726;2022-09-13T11:59:45;4.43;;;2.20;;
10430;SDS011;5262;59.958;17.726;2022-09-13T12:04:51;4.80;;;2.50;;
10430;SDS011;5262;59.958;17.726;2022-09-13T12:07:24;6.13;;;2.47;;
10430;SDS011;5262;59.958;17.726;2022-09-13T12:10:14;4.57;;;2.60;;
10430;SDS011;5262;59.958;17.726;2022-09-13T12:12:50;4.53;;;2.23;;
10430;SDS011;5262;59.958;17.726;2022-09-13T12:15:20;7.03;;;2.90;;
10430;SDS011;5262;59.958;17.726;2022-09-13T12:17:55;9.53;;;3.40;;
10430;SDS011;5262;59.958;17.726;2022-09-13T12:20:33;4.43;;;3.27;;
10430;SDS011;5262;59.958;17.726;2022-09-13T12:23:06;4.93;;;3.17;;
10430;SDS011;5262;59.958;17.726;2022-09-13T12:28:33;3.87;;;2.83;;
10430;SDS011;5262;59.958;17.726;2022-09-13T12:31:09;7.10;;;3.07;;
10430;SDS011;5262;59.958;17.726;2022-09-13T12:33:43;6.20;;;3.50;;
10430;SDS011;5262;59.958;17.726;2022-09-13T12:38:53;8.47;;;3.37;;
10430;SDS011;5262;59.958;17.726;2022-09-13T12:41:50;5.07;;;3.67;;
10430;SDS011;5262;59.958;17.726;2022-09-13T12:44:40;4.77;;;3.17;;
10430;SDS011;5262;59.958;17.726;2022-09-13T12:56:42;8.17;;;3.63;;
10430;SDS011;5262;59.958;17.726;2022-09-13T12:58:53;8.33;;;3.10;;
10430;SDS011;5262;59.958;17.726;2022-09-13T13:01:29;7.30;;;3.10;;
10430;SDS011;5262;59.958;17.726;2022-09-13T13:07:05;6.90;;;3.03;;
10430;SDS011;5262;59.958;17.726;2022-09-13T13:09:53;6.03;;;3.50;;
10430;SDS011;5262;59.958;17.726;2022-09-13T13:12:33;8.17;;;3.70;;
10430;SDS011;5262;59.958;17.726;2022-09-13T13:17:52;6.23;;;4.07;;
10430;SDS011;5262;59.958;17.726;2022-09-13T13:31:09;5.33;;;4.10;;
10430;SDS011;5262;59.958;17.726;2022-09-13T13:36:24;5.73;;;4.60;;
10430;SDS011;5262;59.958;17.726;2022-09-13T13:38:53;8.63;;;4.37;;
10430;SDS011;5262;59.958;17.726;2022-09-13T13:46:42;12.00;;;5.13;;
10430;SDS011;5262;59.958;17.726;2022-09-13T13:59:51;3.87;;;2.73;;
10430;SDS011;5262;59.958;17.726;2022-09-13T14:02:31;2.00;;;1.77;;
10430;SDS011;5262;59.958;17.726;2022-09-13T14:05:16;2.20;;;1.37;;
10430;SDS011;5262;59.958;17.726;2022-09-13T14:18:29;2.03;;;1.30;;
10430;SDS011;5262;59.958;17.726;2022-09-13T14:21:16;3.20;;;0.80;;
10430;SDS011;5262;59.958;17.726;2022-09-13T14:26:45;2.30;;;1.10;;
10430;SDS011;5262;59.958;17.726;2022-09-13T14:29:14;3.00;;;1.07;;
10430;SDS011;5262;59.958;17.726;2022-09-13T14:31:49;3.77;;;1.00;;
10430;SDS011;5262;59.958;17.726;2022-09-13T14:34:27;2.37;;;0.83;;
10430;SDS011;5262;59.958;17.726;2022-09-13T14:36:56;2.27;;;1.00;;
10430;SDS011;5262;59.958;17.726;2022-09-13T14:39:23;2.40;;;1.00;;
10430;SDS011;5262;59.958;17.726;2022-09-13T14:41:56;1.90;;;0.73;;
10430;SDS011;5262;59.958;17.726;2022-09-13T14:44:43;1.47;;;0.97;;
10430;SDS011;5262;59.958;17.726;2022-09-13T14:47:27;4.60;;;1.07;;
10430;SDS011;5262;59.958;17.726;2022-09-13T14:49:57;0.97;;;0.90;;
10430;SDS011;5262;59.958;17.726;2022-09-13T14:52:34;1.20;;;0.83;;
10430;SDS011;5262;59.958;17.726;2022-09-13T14:55:07;2.83;;;0.90;;
10430;SDS011;5262;59.958;17.726;2022-09-13T14:57:39;4.67;;;1.13;;
10430;SDS011;5262;59.958;17.726;2022-09-13T15:00:16;5.10;;;2.03;;
10430;SDS011;5262;59.958;17.726;2022-09-13T15:02:50;2.63;;;0.80;;
10430;SDS011;5262;59.958;17.726;2022-09-13T15:05:18;5.30;;;1.20;;
10430;SDS011;5262;59.958;17.726;2022-09-13T15:07:46;1.40;;;1.00;;
10430;SDS011;5262;59.958;17.726;2022-09-13T15:10:20;3.57;;;1.17;;
10430;SDS011;5262;59.958;17.726;2022-09-13T15:12:54;4.03;;;1.10;;
10430;SDS011;5262;59.958;17.726;2022-09-13T15:23:19;5.00;;;1.10;;
10430;SDS011;5262;59.958;17.726;2022-09-13T15:25:53;3.67;;;0.97;;
10430;SDS011;5262;59.958;17.726;2022-09-13T15:28:24;1.63;;;0.93;;
10430;SDS011;5262;59.958;17.726;2022-09-13T15:30:52;2.07;;;0.77;;
10430;SDS011;5262;59.958;17.726;2022-09-13T15:33:26;1.17;;;0.70;;
10430;SDS011;5262;59.958;17.726;2022-09-13T15:41:33;3.23;;;1.10;;
10430;SDS011;5262;59.958;17.726;2022-09-13T15:44:00;1.70;;;1.00;;
10430;SDS011;5262;59.958;17.726;2022-09-13T15:46:28;1.40;;;0.90;;
10430;SDS011;5262;59.958;17.726;2022-09-13T15:48:55;2.53;;;1.20;;
10430;SDS011;5262;59.958;17.726;2022-09-13T15:51:23;1.63;;;1.20;;
10430;SDS011;5262;59.958;17.726;2022-09-13T15:53:49;2.30;;;1.20;;
10430;SDS011;5262;59.958;17.726;2022-09-13T15:56:25;1.73;;;1.10;;
10430;SDS011;5262;59.958;17.726;2022-09-13T15:58:56;2.83;;;1.20;;
10430;SDS011;5262;59.958;17.726;2022-09-13T16:01:22;2.37;;;1.27;;
10430;SDS011;5262;59.958;17.726;2022-09-13T16:03:48;1.93;;;1.33;;
10430;SDS011;5262;59.958;17.726;2022-09-13T16:06:13;3.37;;;1.27;;
10430;SDS011;5262;59.958;17.726;2022-09-13T16:08:39;4.73;;;1.30;;
10430;SDS011;5262;59.958;17.726;2022-09-13T16:11:05;4.80;;;1.47;;
10430;SDS011;5262;59.958;17.726;2022-09-13T16:13:31;2.40;;;1.23;;
10430;SDS011;5262;59.958;17.726;2022-09-13T16:15:57;1.80;;;1.20;;
10430;SDS011;5262;59.958;17.726;2022-09-13T16:18:23;1.30;;;1.20;;
10430;SDS011;5262;59.958;17.726;2022-09-13T16:20:49;3.63;;;1.60;;
10430;SDS011;5262;59.958;17.726;2022-09-13T16:23:15;1.70;;;1.60;;
10430;SDS011;5262;59.958;17.726;2022-09-13T16:25:41;4.30;;;1.60;;
10430;SDS011;5262;59.958;17.726;2022-09-13T16:28:07;3.80;;;1.50;;
10430;SDS011;5262;59.958;17.726;2022-09-13T16:30:39;1.90;;;1.43;;
10430;SDS011;5262;59.958;17.726;2022-09-13T16:33:04;2.53;;;1.70;;
10430;SDS011;5262;59.958;17.726;2022-09-13T16:35:30;3.80;;;1.80;;
10430;SDS011;5262;59.958;17.726;2022-09-13T16:37:56;2.40;;;1.83;;
10430;SDS011;5262;59.958;17.726;2022-09-13T16:40:22;7.37;;;1.87;;
10430;SDS011;5262;59.958;17.726;2022-09-13T16:42:48;2.47;;;1.67;;
10430;SDS011;5262;59.958;17.726;2022-09-13T16:45:14;2.63;;;1.70;;
10430;SDS011;5262;59.958;17.726;2022-09-13T16:47:39;4.83;;;1.90;;
10430;SDS011;5262;59.958;17.726;2022-09-13T16:50:06;2.53;;;1.87;;
10430;SDS011;5262;59.958;17.726;2022-09-13T16:52:33;1.87;;;1.47;;
10430;SDS011;5262;59.958;17.726;2022-09-13T16:54:59;1.97;;;1.63;;
10430;SDS011;5262;59.958;17.726;2022-09-13T16:57:25;6.23;;;1.63;;
10430;SDS011;5262;59.958;17.726;2022-09-13T16:59:52;3.47;;;1.40;;
10430;SDS011;5262;59.958;17.726;2022-09-13T17:02:20;4.53;;;2.10;;
10430;SDS011;5262;59.958;17.726;2022-09-13T17:04:46;4.43;;;1.77;;
10430;SDS011;5262;59.958;17.726;2022-09-13T17:07:12;2.00;;;1.53;;
10430;SDS011;5262;59.958;17.726;2022-09-13T17:09:38;2.33;;;1.53;;
10430;SDS011;5262;59.958;17.726;2022-09-13T17:12:05;7.77;;;3.77;;
10430;SDS011;5262;59.958;17.726;2022-09-13T17:14:33;3.10;;;1.77;;
10430;SDS011;5262;59.958;17.726;2022-09-13T17:16:59;2.97;;;2.20;;
10430;SDS011;5262;59.958;17.726;2022-09-13T17:19:26;6.23;;;2.50;;
10430;SDS011;5262;59.958;17.726;2022-09-13T17:21:59;3.60;;;2.30;;
10430;SDS011;5262;59.958;17.726;2022-09-13T17:24:27;2.60;;;2.23;;
10430;SDS011;5262;59.958;17.726;2022-09-13T17:26:55;3.37;;;2.43;;
10430;SDS011;5262;59.958;17.726;2022-09-13T17:29:21;4.00;;;2.60;;
10430;SDS011;5262;59.958;17.726;2022-09-13T17:31:49;6.43;;;4.03;;
10430;SDS011;5262;59.958;17.726;2022-09-13T17:34:15;11.10;;;9.80;;
10430;SDS011;5262;59.958;17.726;2022-09-13T17:36:41;16.10;;;10.43;;
10430;SDS011;5262;59.958;17.726;2022-09-13T17:39:07;14.43;;;12.53;;
10430;SDS011;5262;59.958;17.726;2022-09-13T17:41:33;21.83;;;12.63;;
10430;SDS011;5262;59.958;17.726;2022-09-13T17:44:00;16.20;;;12.57;;
10430;SDS011;5262;59.958;17.726;2022-09-13T17:46:26;9.80;;;8.07;;
10430;SDS011;5262;59.958;17.726;2022-09-13T17:48:54;12.80;;;7.37;;
10430;SDS011;5262;59.958;17.726;2022-09-13T17:51:23;4.20;;;3.00;;
10430;SDS011;5262;59.958;17.726;2022-09-13T17:53:51;11.17;;;4.30;;
10430;SDS011;5262;59.958;17.726;2022-09-13T17:56:20;29.07;;;3.60;;
10430;SDS011;5262;59.958;17.726;2022-09-13T17:58:53;105.90;;;6.20;;
10430;SDS011;5262;59.958;17.726;2022-09-13T18:01:20;29.83;;;3.07;;
10430;SDS011;5262;59.958;17.726;2022-09-13T18:03:45;48.17;;;4.03;;
10430;SDS011;5262;59.958;17.726;2022-09-13T18:06:11;2.10;;;1.80;;
10430;SDS011;5262;59.958;17.726;2022-09-13T18:08:39;3.80;;;1.97;;
10430;SDS011;5262;59.958;17.726;2022-09-13T18:11:12;4.40;;;2.10;;
10430;SDS011;5262;59.958;17.726;2022-09-13T18:13:39;1.80;;;1.70;;
10430;SDS011;5262;59.958;17.726;2022-09-13T18:16:07;2.77;;;1.60;;
10430;SDS011;5262;59.958;17.726;2022-09-13T18:18:35;2.50;;;1.60;;
10430;SDS011;5262;59.958;17.726;2022-09-13T18:21:02;5.50;;;1.67;;
10430;SDS011;5262;59.958;17.726;2022-09-13T18:23:28;4.30;;;2.07;;
10430;SDS011;5262;59.958;17.726;2022-09-13T18:26:02;4.20;;;1.60;;
10430;SDS011;5262;59.958;17.726;2022-09-13T18:28:29;6.40;;;1.90;;
10430;SDS011;5262;59.958;17.726;2022-09-13T18:30:59;2.13;;;1.70;;
10430;SDS011;5262;59.958;17.726;2022-09-13T18:33:27;1.93;;;1.47;;
10430;SDS011;5262;59.958;17.726;2022-09-13T18:35:54;5.87;;;1.77;;
10430;SDS011;5262;59.958;17.726;2022-09-13T18:38:21;4.07;;;1.40;;
10430;SDS011;5262;59.958;17.726;2022-09-13T18:40:55;5.70;;;1.70;;
10430;SDS011;5262;59.958;17.726;2022-09-13T18:43:25;3.40;;;1.30;;
10430;SDS011;5262;59.958;17.726;2022-09-13T18:45:58;3.93;;;1.33;;
10430;SDS011;5262;59.958;17.726;2022-09-13T18:48:28;16.70;;;2.20;;
10430;SDS011;5262;59.958;17.726;2022-09-13T18:51:02;2.43;;;1.53;;